createdAt,value
2018-12-29T00:01:05.280Z,26.75
2018-12-29T00:03:32.626Z,25.45
2018-12-29T00:05:59.835Z,17.62
2018-12-29T00:08:27.074Z,16.80
2018-12-29T00:10:58.536Z,17.12
2018-12-29T00:13:25.305Z,16.62
2018-12-29T00:15:57.424Z,16.23
2018-12-29T00:18:24.181Z,13.90
2018-12-29T00:20:51.098Z,13.32
2018-12-29T00:23:18.292Z,15.13
2018-12-29T00:25:45.351Z,15.40
2018-12-29T00:28:12.419Z,13.50
2018-12-29T00:30:39.494Z,14.93
2018-12-29T00:33:06.622Z,15.20
2018-12-29T00:35:33.543Z,15.10
2018-12-29T00:38:06.234Z,14.47
2018-12-29T00:40:33.150Z,15.15
2018-12-29T00:43:00.244Z,16.75
2018-12-29T00:45:27.330Z,15.23
2018-12-29T00:47:54.402Z,14.63
2018-12-29T00:52:54.269Z,14.38
2018-12-29T00:55:21.115Z,16.60
2018-12-29T00:57:48.288Z,14.87
2018-12-29T01:00:15.167Z,16.12
2018-12-29T01:02:42.228Z,15.90
2018-12-29T01:05:09.107Z,14.98
2018-12-29T01:07:36.367Z,15.20
2018-12-29T01:10:03.353Z,16.40
2018-12-29T01:12:30.513Z,14.25
2018-12-29T01:14:57.371Z,16.42
2018-12-29T01:17:24.649Z,13.60
2018-12-29T01:19:51.627Z,13.85
2018-12-29T01:22:18.786Z,13.80
2018-12-29T01:24:45.860Z,13.78
2018-12-29T01:27:12.701Z,13.78
2018-12-29T01:29:41.741Z,14.28
2018-12-29T01:32:08.879Z,14.05
2018-12-29T01:34:35.770Z,13.13
2018-12-29T01:37:02.942Z,13.75
2018-12-29T01:39:30.200Z,12.05
2018-12-29T01:41:57.451Z,12.55
2018-12-29T01:44:24.250Z,12.88
2018-12-29T01:46:57.361Z,12.15
2018-12-29T01:49:24.278Z,13.70
2018-12-29T01:51:51.701Z,13.13
2018-12-29T01:54:18.952Z,12.58
2018-12-29T01:56:45.943Z,15.03
2018-12-29T01:59:13.017Z,11.60
2018-12-29T02:01:40.268Z,11.95
2018-12-29T02:04:07.228Z,12.47
2018-12-29T02:06:34.320Z,13.93
2018-12-29T02:09:01.294Z,12.40
2018-12-29T02:11:30.296Z,12.85
2018-12-29T02:13:57.460Z,10.90
2018-12-29T02:16:24.146Z,10.00
2018-12-29T02:18:51.206Z,12.43
2018-12-29T02:21:18.347Z,12.18
2018-12-29T02:23:45.249Z,10.60
2018-12-29T02:26:12.507Z,12.43
2018-12-29T02:28:39.682Z,11.43
2018-12-29T02:31:06.822Z,10.78
2018-12-29T02:33:34.240Z,10.40
2018-12-29T02:36:03.470Z,11.63
2018-12-29T02:38:30.134Z,11.63
2018-12-29T02:40:57.252Z,11.28
2018-12-29T02:43:28.236Z,10.60
2018-12-29T02:45:55.097Z,11.08
2018-12-29T02:48:22.294Z,11.00
2018-12-29T02:50:49.248Z,10.90
2018-12-29T02:53:18.708Z,10.23
2018-12-29T02:55:44.907Z,11.00
2018-12-29T02:58:12.087Z,9.60
2018-12-29T03:00:39.166Z,11.57
2018-12-29T03:03:06.526Z,12.68
2018-12-29T03:05:33.601Z,13.03
2018-12-29T03:08:00.679Z,13.55
2018-12-29T03:10:27.641Z,11.48
2018-12-29T03:12:54.424Z,12.07
2018-12-29T03:15:21.366Z,10.75
2018-12-29T03:17:48.310Z,11.28
2018-12-29T03:20:15.103Z,10.38
2018-12-29T03:22:42.273Z,11.65
2018-12-29T03:25:11.897Z,13.03
2018-12-29T03:27:39.061Z,12.63
2018-12-29T03:30:06.041Z,11.35
2018-12-29T03:32:33.513Z,11.70
2018-12-29T03:35:00.382Z,10.95
2018-12-29T03:37:27.753Z,12.93
2018-12-29T03:42:27.931Z,11.70
2018-12-29T03:44:54.886Z,10.18
2018-12-29T03:47:21.875Z,11.60
2018-12-29T03:49:48.926Z,10.82
2018-12-29T03:52:15.891Z,12.25
2018-12-29T03:54:42.939Z,12.10
2018-12-29T03:57:10.036Z,13.62
2018-12-29T03:59:36.896Z,12.98
2018-12-29T04:02:08.344Z,13.85
2018-12-29T04:04:33.011Z,13.95
2018-12-29T04:07:03.012Z,12.88
2018-12-29T04:09:29.949Z,13.38
2018-12-29T04:11:56.896Z,13.78
2018-12-29T04:14:27.184Z,15.35
2018-12-29T04:16:54.162Z,16.52
2018-12-29T04:19:21.332Z,14.20
2018-12-29T04:21:48.273Z,15.93
2018-12-29T04:24:15.371Z,13.95
2018-12-29T04:26:42.542Z,14.50
2018-12-29T04:29:09.504Z,14.07
2018-12-29T04:31:36.484Z,13.88
2018-12-29T04:34:03.575Z,12.88
2018-12-29T04:36:30.510Z,13.53
2018-12-29T04:38:57.591Z,13.93
2018-12-29T04:41:24.303Z,15.58
2018-12-29T04:43:51.804Z,12.75
2018-12-29T04:46:18.683Z,12.45
2018-12-29T04:48:45.870Z,14.70
2018-12-29T04:51:13.242Z,15.70
2018-12-29T04:53:40.515Z,14.10
2018-12-29T04:56:07.684Z,14.15
2018-12-29T04:58:35.270Z,13.28
2018-12-29T05:01:02.141Z,12.85
2018-12-29T05:03:29.648Z,12.25
2018-12-29T05:05:56.565Z,13.13
2018-12-29T05:08:23.751Z,12.98
2018-12-29T05:10:50.699Z,13.45
2018-12-29T05:13:17.674Z,13.32
2018-12-29T05:15:44.634Z,12.98
2018-12-29T05:18:12.727Z,13.83
2018-12-29T05:20:39.607Z,13.70
2018-12-29T05:23:08.827Z,13.10
2018-12-29T05:25:35.786Z,12.88
2018-12-29T05:28:03.786Z,12.47
2018-12-29T05:30:30.824Z,13.80
2018-12-29T05:33:06.716Z,14.20
2018-12-29T05:35:33.874Z,13.75
2018-12-29T05:38:00.730Z,13.32
2018-12-29T05:40:27.583Z,13.03
2018-12-29T05:42:54.885Z,14.73
2018-12-29T05:45:27.583Z,12.95
2018-12-29T05:47:57.415Z,12.80
2018-12-29T05:50:24.276Z,12.30
2018-12-29T05:52:51.755Z,13.40
2018-12-29T05:55:18.720Z,10.95
2018-12-29T05:57:54.582Z,12.23
2018-12-29T06:00:21.861Z,12.45
2018-12-29T06:02:48.732Z,12.50
2018-12-29T06:05:15.562Z,12.65
2018-12-29T06:07:42.648Z,11.60
2018-12-29T06:10:19.034Z,12.00
2018-12-29T06:12:45.991Z,13.05
2018-12-29T06:15:13.368Z,13.68
2018-12-29T06:17:40.352Z,12.90
2018-12-29T06:20:07.314Z,14.00
2018-12-29T06:22:43.484Z,12.37
2018-12-29T06:25:10.862Z,14.93
2018-12-29T06:27:40.463Z,15.98
2018-12-29T06:30:08.380Z,13.60
2018-12-29T06:32:35.344Z,13.32
2018-12-29T06:35:05.631Z,12.35
2018-12-29T06:37:32.903Z,11.57
2018-12-29T06:39:59.934Z,19.45
2018-12-29T06:42:26.890Z,42.98
2018-12-29T06:44:56.464Z,25.23
2018-12-29T06:47:30.132Z,13.30
2018-12-29T06:49:57.499Z,11.08
2018-12-29T06:52:24.374Z,12.30
2018-12-29T06:54:52.440Z,11.25
2018-12-29T06:57:19.440Z,10.90
2018-12-29T06:59:48.512Z,12.05
2018-12-29T07:02:15.383Z,10.55
2018-12-29T07:04:43.215Z,11.05
2018-12-29T07:07:10.297Z,11.00
2018-12-29T07:09:37.498Z,11.60
2018-12-29T07:12:04.298Z,12.45
2018-12-29T07:14:31.183Z,11.73
2018-12-29T07:16:58.099Z,11.73
2018-12-29T07:19:25.217Z,11.03
2018-12-29T07:22:02.804Z,12.60
2018-12-29T07:24:30.089Z,9.58
2018-12-29T07:26:57.038Z,10.68
2018-12-29T07:29:23.916Z,10.55
2018-12-29T07:31:51.187Z,11.03
2018-12-29T07:34:23.972Z,11.15
2018-12-29T07:36:50.852Z,11.88
2018-12-29T07:39:18.344Z,9.38
2018-12-29T07:41:45.463Z,11.48
2018-12-29T07:44:12.771Z,15.50
2018-12-29T07:46:49.603Z,21.90
2018-12-29T07:49:12.250Z,21.55
2018-12-29T07:51:39.392Z,19.30
2018-12-29T07:54:06.584Z,21.00
2018-12-29T07:56:33.529Z,19.80
2018-12-29T07:59:00.512Z,21.90
2018-12-29T08:01:27.252Z,19.73
2018-12-29T08:03:54.046Z,19.57
2018-12-29T08:06:21.211Z,18.48
2018-12-29T08:08:48.682Z,18.45
2018-12-29T08:11:15.591Z,15.00
2018-12-29T08:13:45.680Z,16.48
2018-12-29T08:16:12.469Z,16.02
2018-12-29T08:18:39.179Z,14.30
2018-12-29T08:21:06.033Z,14.78
2018-12-29T08:23:32.926Z,12.82
2018-12-29T08:25:59.589Z,12.50
2018-12-29T08:28:26.171Z,13.48
2018-12-29T08:30:53.060Z,14.90
2018-12-29T08:33:20.004Z,17.00
2018-12-29T08:35:46.907Z,15.15
2018-12-29T08:38:20.269Z,13.90
2018-12-29T08:40:47.026Z,15.32
2018-12-29T08:43:17.058Z,15.28
2018-12-29T08:45:45.302Z,18.02
2018-12-29T08:48:12.194Z,19.85
2018-12-29T08:50:39.362Z,22.20
2018-12-29T08:53:06.461Z,26.90
2018-12-29T08:55:33.539Z,27.73
2018-12-29T08:58:00.528Z,28.52
2018-12-29T09:00:27.783Z,24.70
2018-12-29T09:02:54.841Z,23.80
2018-12-29T09:05:22.145Z,18.62
2018-12-29T09:07:49.182Z,17.32
2018-12-29T09:10:16.371Z,15.60
2018-12-29T09:12:43.441Z,13.32
2018-12-29T09:15:10.493Z,13.90
2018-12-29T09:17:37.384Z,14.60
2018-12-29T09:20:04.545Z,13.62
2018-12-29T09:22:31.505Z,14.15
2018-12-29T09:25:00.761Z,14.65
2018-12-29T09:27:27.173Z,13.78
2018-12-29T09:29:54.240Z,13.13
2018-12-29T09:32:21.120Z,15.32
2018-12-29T09:34:48.183Z,13.75
2018-12-29T09:37:15.156Z,13.65
2018-12-29T09:39:42.139Z,14.63
2018-12-29T09:42:09.182Z,11.88
2018-12-29T09:44:36.258Z,13.58
2018-12-29T09:47:03.010Z,11.15
2018-12-29T09:49:30.330Z,12.70
2018-12-29T09:51:57.324Z,13.55
2018-12-29T09:54:24.322Z,13.68
2018-12-29T09:56:51.197Z,14.05
2018-12-29T09:59:18.080Z,12.93
2018-12-29T10:01:45.048Z,13.28
2018-12-29T10:04:11.795Z,14.75
2018-12-29T10:06:38.691Z,13.30
2018-12-29T10:09:05.816Z,12.88
2018-12-29T10:11:32.885Z,13.93
2018-12-29T10:14:00.715Z,16.25
2018-12-29T10:16:28.325Z,15.85
2018-12-29T10:18:55.133Z,14.58
2018-12-29T10:21:22.105Z,15.43
2018-12-29T10:23:49.044Z,15.20
2018-12-29T10:26:16.205Z,15.18
2018-12-29T10:28:43.046Z,15.15
2018-12-29T10:31:10.166Z,13.98
2018-12-29T10:33:37.020Z,14.28
2018-12-29T10:36:04.523Z,15.58
2018-12-29T10:38:31.292Z,15.63
2018-12-29T10:40:58.239Z,15.95
2018-12-29T10:43:25.403Z,17.27
2018-12-29T10:45:52.223Z,16.45
2018-12-29T10:48:19.023Z,17.07
2018-12-29T10:50:46.202Z,18.10
2018-12-29T10:53:12.962Z,18.10
2018-12-29T10:55:39.956Z,18.70
2018-12-29T10:58:07.038Z,16.17
2018-12-29T11:00:35.121Z,18.23
2018-12-29T11:03:03.600Z,18.73
2018-12-29T11:05:30.478Z,17.85
2018-12-29T11:08:05.522Z,19.02
2018-12-29T11:10:32.903Z,18.85
2018-12-29T11:12:59.663Z,18.02
2018-12-29T11:15:26.726Z,15.63
2018-12-29T11:17:53.599Z,16.93
2018-12-29T11:20:20.760Z,16.73
2018-12-29T11:22:47.594Z,16.55
2018-12-29T11:25:14.862Z,16.15
2018-12-29T11:27:41.622Z,17.30
2018-12-29T11:30:08.310Z,17.17
2018-12-29T11:32:35.198Z,16.32
2018-12-29T11:35:01.950Z,15.90
2018-12-29T11:37:28.703Z,16.97
2018-12-29T11:39:55.896Z,16.37
2018-12-29T11:42:22.577Z,16.02
2018-12-29T11:44:49.201Z,14.23
2018-12-29T11:47:16.401Z,15.50
2018-12-29T11:49:43.009Z,14.33
2018-12-29T11:52:10.199Z,15.95
2018-12-29T11:54:37.500Z,14.18
2018-12-29T11:57:04.363Z,14.15
2018-12-29T11:59:30.941Z,14.85
2018-12-29T12:01:57.700Z,14.95
2018-12-29T12:04:24.448Z,14.98
2018-12-29T12:06:51.583Z,14.40
2018-12-29T12:09:18.127Z,14.53
2018-12-29T12:11:44.780Z,13.40
2018-12-29T12:14:11.811Z,13.10
2018-12-29T12:16:38.522Z,13.40
2018-12-29T12:19:05.299Z,13.32
2018-12-29T12:21:32.382Z,13.53
2018-12-29T12:23:59.138Z,13.22
2018-12-29T12:26:26.300Z,12.93
2018-12-29T12:28:53.182Z,13.28
2018-12-29T12:31:20.599Z,14.53
2018-12-29T12:33:47.332Z,13.72
2018-12-29T12:36:14.573Z,13.60
2018-12-29T12:38:41.472Z,13.45
2018-12-29T12:41:08.290Z,12.73
2018-12-29T12:43:35.132Z,11.75
2018-12-29T12:46:02.371Z,11.85
2018-12-29T12:48:29.311Z,13.60
2018-12-29T12:50:56.512Z,11.50
2018-12-29T12:53:23.212Z,12.23
2018-12-29T12:55:50.030Z,11.85
2018-12-29T12:58:17.312Z,11.65
2018-12-29T13:00:44.692Z,11.12
2018-12-29T13:03:11.912Z,10.13
2018-12-29T13:05:38.600Z,8.95
2018-12-29T13:08:05.675Z,9.68
2018-12-29T13:10:32.435Z,9.75
2018-12-29T13:12:59.224Z,8.30
2018-12-29T13:15:26.079Z,9.18
2018-12-29T13:17:53.250Z,8.75
2018-12-29T13:20:20.287Z,8.60
2018-12-29T13:22:47.254Z,9.58
2018-12-29T13:25:13.966Z,9.85
2018-12-29T13:27:41.932Z,9.88
2018-12-29T13:30:08.883Z,9.05
2018-12-29T13:32:35.767Z,8.05
2018-12-29T13:35:03.248Z,9.25
2018-12-29T13:37:30.321Z,9.48
2018-12-29T13:39:57.261Z,9.60
2018-12-29T13:42:24.362Z,9.95
2018-12-29T13:44:51.502Z,9.38
2018-12-29T13:47:18.461Z,10.25
2018-12-29T13:49:45.444Z,10.20
2018-12-29T13:52:12.516Z,9.80
2018-12-29T13:54:39.162Z,10.25
2018-12-29T13:57:05.925Z,10.00
2018-12-29T13:59:32.768Z,10.70
2018-12-29T14:01:59.444Z,9.58
2018-12-29T14:04:26.335Z,9.65
2018-12-29T14:06:53.091Z,8.70
2018-12-29T14:09:20.449Z,9.23
2018-12-29T14:11:47.227Z,8.88
2018-12-29T14:14:13.855Z,10.05
2018-12-29T14:16:40.824Z,9.88
2018-12-29T14:19:07.501Z,10.03
2018-12-29T14:21:34.222Z,8.45
2018-12-29T14:24:01.073Z,10.90
2018-12-29T14:26:31.213Z,9.60
2018-12-29T14:28:58.433Z,9.63
2018-12-29T14:31:25.183Z,9.95
2018-12-29T14:33:51.914Z,9.60
2018-12-29T14:36:18.846Z,9.95
2018-12-29T14:38:45.786Z,10.53
2018-12-29T14:41:15.746Z,9.68
2018-12-29T14:43:42.665Z,9.38
2018-12-29T14:46:09.347Z,9.90
2018-12-29T14:48:36.278Z,9.25
2018-12-29T14:51:03.188Z,10.10
2018-12-29T14:53:30.160Z,9.90
2018-12-29T14:55:57.338Z,9.73
2018-12-29T14:58:24.518Z,11.22
2018-12-29T15:00:51.092Z,11.00
2018-12-29T15:03:17.938Z,10.28
2018-12-29T15:05:44.800Z,11.80
2018-12-29T15:08:12.054Z,10.75
2018-12-29T15:10:39.027Z,11.25
2018-12-29T15:13:06.417Z,11.22
2018-12-29T15:15:33.169Z,10.60
2018-12-29T15:18:00.028Z,10.75
2018-12-29T15:20:27.208Z,10.60
2018-12-29T15:22:54.171Z,10.90
2018-12-29T15:25:21.249Z,10.85
2018-12-29T15:27:48.828Z,8.90
2018-12-29T15:30:15.689Z,8.03
2018-12-29T15:32:42.591Z,10.20
2018-12-29T15:35:10.129Z,9.23
2018-12-29T15:37:36.988Z,11.28
2018-12-29T15:40:04.054Z,9.35
2018-12-29T15:42:30.963Z,10.58
2018-12-29T15:44:57.918Z,11.38
2018-12-29T15:47:25.071Z,11.83
2018-12-29T15:49:52.547Z,15.03
2018-12-29T15:52:19.531Z,14.60
2018-12-29T15:54:47.212Z,15.15
2018-12-29T15:57:14.163Z,14.93
2018-12-29T15:59:41.422Z,13.38
2018-12-29T16:02:08.620Z,14.95
2018-12-29T16:04:35.603Z,13.95
2018-12-29T16:07:02.650Z,14.40
2018-12-29T16:09:30.665Z,14.07
2018-12-29T16:11:58.213Z,13.13
2018-12-29T16:14:25.013Z,13.75
2018-12-29T16:16:51.848Z,13.38
2018-12-29T16:19:18.824Z,12.73
2018-12-29T16:21:45.798Z,12.80
2018-12-29T16:24:13.378Z,15.80
2018-12-29T16:26:40.337Z,13.60
2018-12-29T16:29:13.992Z,14.70
2018-12-29T16:31:36.203Z,14.85
2018-12-29T16:34:03.688Z,13.00
2018-12-29T16:36:31.264Z,14.18
2018-12-29T16:38:58.544Z,12.93
2018-12-29T16:41:25.500Z,12.80
2018-12-29T16:43:52.998Z,12.15
2018-12-29T16:46:19.868Z,11.97
2018-12-29T16:48:46.923Z,12.45
2018-12-29T16:51:17.059Z,11.88
2018-12-29T16:53:44.328Z,12.15
2018-12-29T16:56:11.190Z,12.20
2018-12-29T16:58:38.364Z,12.82
2018-12-29T17:01:05.359Z,12.93
2018-12-29T17:03:32.301Z,12.85
2018-12-29T17:05:59.439Z,13.08
2018-12-29T17:08:27.243Z,14.43
2018-12-29T17:10:54.339Z,15.28
2018-12-29T17:13:21.401Z,14.40
2018-12-29T17:15:48.668Z,13.32
2018-12-29T17:18:15.540Z,14.83
2018-12-29T17:20:42.600Z,14.60
2018-12-29T17:23:09.583Z,14.35
2018-12-29T17:25:36.868Z,15.05
2018-12-29T17:28:03.719Z,14.68
2018-12-29T17:30:30.400Z,13.50
2018-12-29T17:32:57.481Z,14.63
2018-12-29T17:35:24.720Z,14.23
2018-12-29T17:37:51.680Z,14.23
2018-12-29T17:40:18.701Z,15.80
2018-12-29T17:42:45.621Z,14.03
2018-12-29T17:45:12.899Z,15.80
2018-12-29T17:47:39.659Z,17.17
2018-12-29T17:50:06.508Z,16.27
2018-12-29T17:52:33.438Z,16.35
2018-12-29T17:55:00.559Z,17.42
2018-12-29T17:57:27.500Z,16.57
2018-12-29T17:59:54.220Z,17.37
2018-12-29T18:02:21.063Z,18.05
2018-12-29T18:04:47.830Z,17.90
2018-12-29T18:07:14.561Z,18.07
2018-12-29T18:09:41.203Z,19.67
2018-12-29T18:12:08.062Z,21.37
2018-12-29T18:14:34.718Z,27.82
2018-12-29T18:17:01.352Z,28.40
2018-12-29T18:19:30.864Z,28.42
2018-12-29T18:21:56.469Z,23.83
2018-12-29T18:24:23.129Z,29.45
2018-12-29T18:26:49.828Z,28.55
2018-12-29T18:29:16.494Z,29.55
2018-12-29T18:31:43.145Z,29.42
2018-12-29T18:34:09.874Z,28.23
2018-12-29T18:36:36.532Z,28.17
2018-12-29T18:39:03.260Z,28.25
2018-12-29T18:41:30.027Z,26.42
2018-12-29T18:43:56.686Z,20.97
2018-12-29T18:46:23.409Z,21.15
2018-12-29T18:48:50.081Z,18.32
2018-12-29T18:51:16.718Z,16.40
2018-12-29T18:53:43.739Z,16.80
2018-12-29T18:56:10.544Z,18.45
2018-12-29T18:58:37.218Z,17.62
2018-12-29T19:01:03.955Z,16.02
2018-12-29T19:03:30.702Z,19.42
2018-12-29T19:05:57.864Z,16.15
2018-12-29T19:08:24.522Z,17.65
2018-12-29T19:10:51.186Z,15.55
2018-12-29T19:13:18.777Z,17.10
2018-12-29T19:15:45.945Z,16.85
2018-12-29T19:18:12.663Z,17.70
2018-12-29T19:20:39.443Z,21.68
2018-12-29T19:23:06.681Z,25.70
2018-12-29T19:25:33.339Z,24.37
2018-12-29T19:28:00.131Z,24.43
2018-12-29T19:30:27.196Z,23.70
2018-12-29T19:32:54.499Z,20.23
2018-12-29T19:35:21.102Z,20.35
2018-12-29T19:37:47.768Z,19.42
2018-12-29T19:40:14.453Z,21.02
2018-12-29T19:42:41.703Z,18.75
2018-12-29T19:45:08.384Z,19.07
2018-12-29T19:47:35.039Z,19.77
2018-12-29T19:50:02.027Z,18.42
2018-12-29T19:52:28.687Z,19.55
2018-12-29T19:54:55.450Z,30.37
2018-12-29T19:57:22.667Z,30.48
2018-12-29T19:59:49.426Z,32.13
2018-12-29T20:02:16.690Z,35.35
2018-12-29T20:04:43.700Z,37.17
2018-12-29T20:07:10.757Z,33.83
2018-12-29T20:09:38.143Z,36.65
2018-12-29T20:12:04.785Z,34.78
2018-12-29T20:14:31.546Z,28.45
2018-12-29T20:16:58.201Z,24.10
2018-12-29T20:19:24.944Z,22.05
2018-12-29T20:21:51.668Z,25.97
2018-12-29T20:24:18.977Z,26.57
2018-12-29T20:26:45.763Z,27.93
2018-12-29T20:29:12.620Z,26.93
2018-12-29T20:31:39.362Z,19.82
2018-12-29T20:34:06.180Z,17.25
2018-12-29T20:36:32.880Z,17.30
2018-12-29T20:38:59.983Z,16.50
2018-12-29T20:41:26.519Z,17.75
2018-12-29T20:43:53.339Z,17.07
2018-12-29T20:46:20.026Z,18.10
2018-12-29T20:48:46.707Z,16.67
2018-12-29T20:51:13.510Z,16.65
2018-12-29T20:53:40.126Z,15.13
2018-12-29T20:56:06.879Z,15.80
2018-12-29T20:58:33.605Z,14.75
2018-12-29T21:01:00.317Z,17.15
2018-12-29T21:03:26.950Z,16.30
2018-12-29T21:05:54.100Z,16.60
2018-12-29T21:08:20.761Z,14.10
2018-12-29T21:10:48.070Z,14.80
2018-12-29T21:13:14.803Z,15.10
2018-12-29T21:15:41.593Z,15.78
2018-12-29T21:18:08.383Z,15.32
2018-12-29T21:20:35.274Z,15.05
2018-12-29T21:23:01.961Z,16.25
2018-12-29T21:25:28.786Z,14.58
2018-12-29T21:27:55.606Z,16.30
2018-12-29T21:30:22.274Z,18.77
2018-12-29T21:32:48.957Z,16.02
2018-12-29T21:35:15.867Z,17.73
2018-12-29T21:37:42.606Z,17.70
2018-12-29T21:40:09.417Z,17.48
2018-12-29T21:42:36.119Z,16.07
2018-12-29T21:45:02.901Z,18.37
2018-12-29T21:47:29.541Z,16.27
2018-12-29T21:49:56.342Z,16.60
2018-12-29T21:52:23.019Z,14.90
2018-12-29T21:54:49.701Z,15.35
2018-12-29T21:57:16.520Z,16.35
2018-12-29T21:59:43.762Z,16.10
2018-12-29T22:02:10.488Z,15.20
2018-12-29T22:04:37.340Z,17.12
2018-12-29T22:07:04.011Z,14.58
2018-12-29T22:09:30.697Z,15.53
2018-12-29T22:11:57.401Z,15.98
2018-12-29T22:14:24.081Z,14.70
2018-12-29T22:16:50.799Z,14.43
2018-12-29T22:19:17.513Z,13.88
2018-12-29T22:21:44.111Z,13.85
2018-12-29T22:24:10.818Z,15.03
2018-12-29T22:26:37.563Z,15.72
2018-12-29T22:29:04.232Z,14.23
2018-12-29T22:31:31.723Z,15.25
2018-12-29T22:33:58.350Z,14.58
2018-12-29T22:36:25.022Z,15.28
2018-12-29T22:38:51.816Z,15.03
2018-12-29T22:41:18.495Z,18.65
2018-12-29T22:43:45.681Z,16.93
2018-12-29T22:46:12.914Z,16.97
2018-12-29T22:48:39.669Z,16.90
2018-12-29T22:51:06.456Z,16.10
2018-12-29T22:53:33.136Z,16.62
2018-12-29T22:55:59.806Z,16.25
2018-12-29T22:58:26.511Z,16.25
2018-12-29T23:00:53.249Z,14.33
2018-12-29T23:03:20.041Z,15.20
2018-12-29T23:05:46.896Z,14.30
2018-12-29T23:08:13.589Z,13.85
2018-12-29T23:10:40.425Z,12.25
2018-12-29T23:13:07.111Z,14.15
2018-12-29T23:15:33.886Z,14.40
2018-12-29T23:18:00.633Z,14.93
2018-12-29T23:20:27.338Z,14.65
2018-12-29T23:22:54.022Z,15.58
2018-12-29T23:25:20.811Z,14.15
2018-12-29T23:27:47.558Z,15.38
2018-12-29T23:30:14.371Z,15.08
2018-12-29T23:32:41.496Z,19.30
2018-12-29T23:35:11.388Z,18.15
2018-12-29T23:37:38.123Z,17.10
2018-12-29T23:40:04.923Z,18.17
2018-12-29T23:42:31.632Z,18.57
2018-12-29T23:44:58.576Z,18.07
2018-12-29T23:47:25.847Z,18.73
2018-12-29T23:49:52.507Z,17.90
2018-12-29T23:52:19.342Z,18.32
2018-12-29T23:54:46.061Z,14.93
2018-12-29T23:57:13.290Z,13.22
2018-12-29T23:59:39.957Z,12.90
